sensor_id;sensor_type;location;lat;lon;timestamp;pressure;altitude;pressure_sealevel;temperature;humidity
31775;BME280;66189;49.000;11.640;2023-04-10T00:00:09;96700.13;;;2.52;77.54
31775;BME280;66189;49.000;11.640;2023-04-10T00:02:09;96698.28;;;2.52;77.60
31775;BME280;66189;49.000;11.640;2023-04-10T00:04:10;96702.00;;;2.51;77.67
31775;BME280;66189;49.000;11.640;2023-04-10T00:06:11;96702.22;;;2.55;77.70
31775;BME280;66189;49.000;11.640;2023-04-10T00:08:11;96697.72;;;2.55;77.65
31775;BME280;66189;49.000;11.640;2023-04-10T00:10:11;96696.13;;;2.54;77.79
31775;BME280;66189;49.000;11.640;2023-04-10T00:12:12;96699.00;;;2.58;77.74
31775;BME280;66189;49.000;11.640;2023-04-10T00:14:13;96692.13;;;2.57;78.33
31775;BME280;66189;49.000;11.640;2023-04-10T00:16:14;96693.56;;;2.49;77.44
31775;BME280;66189;49.000;11.640;2023-04-10T00:18:15;96693.19;;;2.56;77.55
31775;BME280;66189;49.000;11.640;2023-04-10T00:20:15;96693.09;;;2.42;77.90
31775;BME280;66189;49.000;11.640;2023-04-10T00:22:16;96689.16;;;2.39;78.68
31775;BME280;66189;49.000;11.640;2023-04-10T00:24:16;96683.56;;;2.41;78.39
31775;BME280;66189;49.000;11.640;2023-04-10T00:26:16;96686.34;;;2.30;78.90
31775;BME280;66189;49.000;11.640;2023-04-10T00:28:18;96680.94;;;2.17;79.40
31775;BME280;66189;49.000;11.640;2023-04-10T00:30:18;96674.22;;;2.00;79.42
31775;BME280;66189;49.000;11.640;2023-04-10T00:32:18;96679.53;;;2.00;78.50
31775;BME280;66189;49.000;11.640;2023-04-10T00:34:19;96670.91;;;1.89;78.54
31775;BME280;66189;49.000;11.640;2023-04-10T00:36:19;96675.66;;;1.92;78.74
31775;BME280;66189;49.000;11.640;2023-04-10T00:38:20;96664.81;;;1.89;80.04
31775;BME280;66189;49.000;11.640;2023-04-10T00:40:21;96666.94;;;2.11;80.90
31775;BME280;66189;49.000;11.640;2023-04-10T00:42:22;96664.09;;;2.45;80.30
31775;BME280;66189;49.000;11.640;2023-04-10T00:44:22;96659.44;;;2.37;80.49
31775;BME280;66189;49.000;11.640;2023-04-10T00:46:23;96671.88;;;2.42;80.60
31775;BME280;66189;49.000;11.640;2023-04-10T00:48:24;96665.97;;;2.45;80.76
31775;BME280;66189;49.000;11.640;2023-04-10T00:50:25;96665.47;;;2.43;80.83
31775;BME280;66189;49.000;11.640;2023-04-10T00:52:26;96657.34;;;2.53;80.71
31775;BME280;66189;49.000;11.640;2023-04-10T00:54:27;96662.09;;;2.56;81.06
31775;BME280;66189;49.000;11.640;2023-04-10T00:56:29;96659.09;;;2.63;80.76
31775;BME280;66189;49.000;11.640;2023-04-10T00:58:31;96651.75;;;2.55;80.39
31775;BME280;66189;49.000;11.640;2023-04-10T01:00:32;96653.06;;;2.57;80.71
31775;BME280;66189;49.000;11.640;2023-04-10T01:02:32;96648.59;;;2.53;80.77
31775;BME280;66189;49.000;11.640;2023-04-10T01:04:33;96648.13;;;2.51;81.92
31775;BME280;66189;49.000;11.640;2023-04-10T01:09:16;96640.63;;;2.34;81.05
31775;BME280;66189;49.000;11.640;2023-04-10T01:13:52;96634.91;;;2.26;81.67
31775;BME280;66189;49.000;11.640;2023-04-10T01:16:04;96638.72;;;2.20;81.77
31775;BME280;66189;49.000;11.640;2023-04-10T01:18:18;96640.34;;;2.16;81.75
31775;BME280;66189;49.000;11.640;2023-04-10T01:20:23;96636.88;;;2.16;82.22
31775;BME280;66189;49.000;11.640;2023-04-10T01:22:35;96642.56;;;2.09;82.38
31775;BME280;66189;49.000;11.640;2023-04-10T01:25:12;96646.19;;;1.94;82.49
31775;BME280;66189;49.000;11.640;2023-04-10T01:29:44;96648.06;;;1.93;82.74
31775;BME280;66189;49.000;11.640;2023-04-10T01:32:00;96650.25;;;1.86;82.82
31775;BME280;66189;49.000;11.640;2023-04-10T01:34:06;96643.66;;;1.84;82.68
31775;BME280;66189;49.000;11.640;2023-04-10T01:36:08;96649.97;;;1.88;82.25
31775;BME280;66189;49.000;11.640;2023-04-10T01:38:10;96644.38;;;1.89;81.44
31775;BME280;66189;49.000;11.640;2023-04-10T01:40:14;96648.34;;;1.92;80.86
31775;BME280;66189;49.000;11.640;2023-04-10T01:42:16;96644.34;;;1.94;79.96
31775;BME280;66189;49.000;11.640;2023-04-10T01:44:23;96640.88;;;1.94;79.31
31775;BME280;66189;49.000;11.640;2023-04-10T01:46:28;96630.72;;;1.77;79.71
31775;BME280;66189;49.000;11.640;2023-04-10T01:48:29;96627.78;;;1.78;81.73
31775;BME280;66189;49.000;11.640;2023-04-10T01:50:30;96629.88;;;1.82;82.85
31775;BME280;66189;49.000;11.640;2023-04-10T01:52:32;96632.81;;;1.80;84.03
31775;BME280;66189;49.000;11.640;2023-04-10T01:54:49;96630.34;;;1.89;84.35
31775;BME280;66189;49.000;11.640;2023-04-10T01:56:58;96629.44;;;2.18;84.15
31775;BME280;66189;49.000;11.640;2023-04-10T01:59:01;96629.72;;;2.16;84.15
31775;BME280;66189;49.000;11.640;2023-04-10T02:01:03;96622.78;;;2.20;84.69
31775;BME280;66189;49.000;11.640;2023-04-10T02:03:03;96627.28;;;2.20;84.69
31775;BME280;66189;49.000;11.640;2023-04-10T02:05:04;96626.06;;;2.12;84.61
31775;BME280;66189;49.000;11.640;2023-04-10T02:07:15;96618.88;;;2.12;83.75
31775;BME280;66189;49.000;11.640;2023-04-10T02:09:24;96620.53;;;2.08;84.03
31775;BME280;66189;49.000;11.640;2023-04-10T02:13:29;96621.69;;;2.02;83.83
31775;BME280;66189;49.000;11.640;2023-04-10T02:15:33;96627.59;;;1.94;83.65
31775;BME280;66189;49.000;11.640;2023-04-10T02:17:37;96623.59;;;1.97;83.38
31775;BME280;66189;49.000;11.640;2023-04-10T02:19:39;96618.78;;;1.99;82.07
31775;BME280;66189;49.000;11.640;2023-04-10T02:21:40;96617.72;;;2.00;81.65
31775;BME280;66189;49.000;11.640;2023-04-10T02:23:41;96617.66;;;2.05;81.56
31775;BME280;66189;49.000;11.640;2023-04-10T02:25:42;96622.66;;;2.06;81.63
31775;BME280;66189;49.000;11.640;2023-04-10T02:27:42;96627.47;;;2.04;81.52
31775;BME280;66189;49.000;11.640;2023-04-10T02:29:44;96622.25;;;1.99;81.18
31775;BME280;66189;49.000;11.640;2023-04-10T02:31:45;96618.88;;;1.93;80.50
31775;BME280;66189;49.000;11.640;2023-04-10T02:33:45;96628.47;;;1.89;80.51
31775;BME280;66189;49.000;11.640;2023-04-10T02:35:46;96622.38;;;1.89;82.36
31775;BME280;66189;49.000;11.640;2023-04-10T02:37:47;96619.06;;;1.78;83.65
31775;BME280;66189;49.000;11.640;2023-04-10T02:39:51;96620.47;;;1.94;83.34
31775;BME280;66189;49.000;11.640;2023-04-10T02:41:54;96618.22;;;1.83;83.17
31775;BME280;66189;49.000;11.640;2023-04-10T02:43:56;96622.22;;;1.80;83.22
31775;BME280;66189;49.000;11.640;2023-04-10T02:46:02;96618.97;;;1.83;82.47
31775;BME280;66189;49.000;11.640;2023-04-10T02:48:07;96630.25;;;1.75;82.61
31775;BME280;66189;49.000;11.640;2023-04-10T02:50:08;96623.13;;;1.70;83.76
31775;BME280;66189;49.000;11.640;2023-04-10T02:52:11;96622.78;;;1.77;82.86
31775;BME280;66189;49.000;11.640;2023-04-10T02:54:12;96629.50;;;1.69;83.69
31775;BME280;66189;49.000;11.640;2023-04-10T02:56:14;96628.84;;;1.77;83.45
31775;BME280;66189;49.000;11.640;2023-04-10T02:58:15;96631.50;;;1.77;82.91
31775;BME280;66189;49.000;11.640;2023-04-10T03:00:16;96627.31;;;1.76;82.97
31775;BME280;66189;49.000;11.640;2023-04-10T03:02:45;96632.31;;;1.78;83.04
31775;BME280;66189;49.000;11.640;2023-04-10T03:04:50;96632.31;;;1.78;82.51
31775;BME280;66189;49.000;11.640;2023-04-10T03:06:54;96627.00;;;1.78;81.94
31775;BME280;66189;49.000;11.640;2023-04-10T03:08:55;96628.28;;;1.81;82.00
31775;BME280;66189;49.000;11.640;2023-04-10T03:10:55;96625.59;;;1.86;81.69
31775;BME280;66189;49.000;11.640;2023-04-10T03:12:56;96624.28;;;1.83;81.57
31775;BME280;66189;49.000;11.640;2023-04-10T03:14:56;96628.56;;;1.79;81.59
31775;BME280;66189;49.000;11.640;2023-04-10T03:16:57;96627.13;;;1.68;82.25
31775;BME280;66189;49.000;11.640;2023-04-10T03:18:57;96620.31;;;1.62;82.10
31775;BME280;66189;49.000;11.640;2023-04-10T03:20:58;96624.53;;;1.63;81.87
31775;BME280;66189;49.000;11.640;2023-04-10T03:22:59;96622.19;;;1.61;81.14
31775;BME280;66189;49.000;11.640;2023-04-10T03:25:01;96623.44;;;1.64;81.87
31775;BME280;66189;49.000;11.640;2023-04-10T03:27:03;96620.03;;;1.63;82.30
31775;BME280;66189;49.000;11.640;2023-04-10T03:29:04;96619.75;;;1.65;81.66
31775;BME280;66189;49.000;11.640;2023-04-10T03:31:05;96627.91;;;1.68;81.78
31775;BME280;66189;49.000;11.640;2023-04-10T03:33:08;96623.91;;;1.71;81.79
31775;BME280;66189;49.000;11.640;2023-04-10T03:35:09;96625.78;;;1.70;82.07
31775;BME280;66189;49.000;11.640;2023-04-10T03:37:09;96623.41;;;1.69;81.83
31775;BME280;66189;49.000;11.640;2023-04-10T03:39:10;96630.84;;;1.67;81.53
31775;BME280;66189;49.000;11.640;2023-04-10T03:41:10;96626.16;;;1.58;81.91
31775;BME280;66189;49.000;11.640;2023-04-10T03:43:11;96623.97;;;1.41;82.16
31775;BME280;66189;49.000;11.640;2023-04-10T03:45:12;96624.97;;;1.46;81.52
31775;BME280;66189;49.000;11.640;2023-04-10T03:47:12;96630.81;;;1.48;82.23
31775;BME280;66189;49.000;11.640;2023-04-10T03:49:16;96626.06;;;1.45;81.92
31775;BME280;66189;49.000;11.640;2023-04-10T03:51:17;96627.19;;;1.38;81.71
31775;BME280;66189;49.000;11.640;2023-04-10T03:53:18;96632.03;;;1.31;80.76
31775;BME280;66189;49.000;11.640;2023-04-10T03:55:20;96625.41;;;1.29;80.29
31775;BME280;66189;49.000;11.640;2023-04-10T03:57:22;96633.19;;;1.20;81.05
31775;BME280;66189;49.000;11.640;2023-04-10T03:59:23;96638.31;;;1.11;81.34
31775;BME280;66189;49.000;11.640;2023-04-10T04:01:24;96628.56;;;1.06;84.40
31775;BME280;66189;49.000;11.640;2023-04-10T04:03:33;96633.25;;;1.15;84.12
31775;BME280;66189;49.000;11.640;2023-04-10T04:05:39;96636.34;;;1.22;84.23
31775;BME280;66189;49.000;11.640;2023-04-10T04:07:58;96634.44;;;1.28;84.15
31775;BME280;66189;49.000;11.640;2023-04-10T04:10:30;96635.72;;;1.30;84.38
31775;BME280;66189;49.000;11.640;2023-04-10T04:12:37;96635.97;;;1.34;84.23
31775;BME280;66189;49.000;11.640;2023-04-10T04:14:50;96627.75;;;1.35;83.61
31775;BME280;66189;49.000;11.640;2023-04-10T04:17:09;96637.81;;;1.33;82.96
31775;BME280;66189;49.000;11.640;2023-04-10T04:19:35;96631.56;;;1.24;81.19
31775;BME280;66189;49.000;11.640;2023-04-10T04:21:41;96636.38;;;1.17;81.19
31775;BME280;66189;49.000;11.640;2023-04-10T04:24:14;96638.25;;;1.16;81.22
31775;BME280;66189;49.000;11.640;2023-04-10T04:26:33;96643.91;;;1.10;81.75
31775;BME280;66189;49.000;11.640;2023-04-10T04:28:46;96646.84;;;1.03;80.88
31775;BME280;66189;49.000;11.640;2023-04-10T04:30:50;96645.88;;;0.94;79.37
31775;BME280;66189;49.000;11.640;2023-04-10T04:32:54;96649.63;;;0.87;78.54
31775;BME280;66189;49.000;11.640;2023-04-10T04:35:14;96650.69;;;0.86;79.14
31775;BME280;66189;49.000;11.640;2023-04-10T04:37:32;96655.19;;;0.86;80.16
31775;BME280;66189;49.000;11.640;2023-04-10T04:39:52;96660.00;;;0.79;81.14
31775;BME280;66189;49.000;11.640;2023-04-10T04:41:58;96660.78;;;0.84;80.62
31775;BME280;66189;49.000;11.640;2023-04-10T04:44:19;96660.84;;;0.74;81.72
31775;BME280;66189;49.000;11.640;2023-04-10T04:46:55;96664.59;;;0.73;82.55
31775;BME280;66189;49.000;11.640;2023-04-10T04:49:02;96664.31;;;0.69;82.84
31775;BME280;66189;49.000;11.640;2023-04-10T04:51:18;96664.03;;;0.71;83.32
31775;BME280;66189;49.000;11.640;2023-04-10T04:53:26;96666.47;;;0.67;82.46
31775;BME280;66189;49.000;11.640;2023-04-10T04:55:41;96662.50;;;0.70;81.99
31775;BME280;66189;49.000;11.640;2023-04-10T04:58:00;96658.06;;;0.55;80.56
31775;BME280;66189;49.000;11.640;2023-04-10T05:00:14;96653.66;;;0.40;82.31
31775;BME280;66189;49.000;11.640;2023-04-10T05:02:35;96650.44;;;0.48;82.88
31775;BME280;66189;49.000;11.640;2023-04-10T05:05:08;96652.47;;;0.62;83.14
31775;BME280;66189;49.000;11.640;2023-04-10T05:07:20;96655.13;;;0.62;85.34
31775;BME280;66189;49.000;11.640;2023-04-10T05:09:20;96654.00;;;0.68;85.44
31775;BME280;66189;49.000;11.640;2023-04-10T05:11:37;96664.03;;;0.76;84.56
31775;BME280;66189;49.000;11.640;2023-04-10T05:14:09;96664.22;;;0.85;84.09
31775;BME280;66189;49.000;11.640;2023-04-10T05:16:25;96670.06;;;0.82;81.87
31775;BME280;66189;49.000;11.640;2023-04-10T05:18:47;96667.41;;;0.82;81.44
31775;BME280;66189;49.000;11.640;2023-04-10T05:21:06;96668.16;;;0.87;81.32
31775;BME280;66189;49.000;11.640;2023-04-10T05:23:34;96677.94;;;0.92;80.83
31775;BME280;66189;49.000;11.640;2023-04-10T05:25:50;96678.75;;;0.87;83.27
31775;BME280;66189;49.000;11.640;2023-04-10T05:28:22;96675.00;;;0.99;83.66
31775;BME280;66189;49.000;11.640;2023-04-10T05:30:33;96678.34;;;1.10;83.66
31775;BME280;66189;49.000;11.640;2023-04-10T05:32:59;96689.22;;;1.08;82.68
31775;BME280;66189;49.000;11.640;2023-04-10T05:34:59;96687.69;;;1.02;83.55
31775;BME280;66189;49.000;11.640;2023-04-10T05:37:08;96692.31;;;1.15;83.59
31775;BME280;66189;49.000;11.640;2023-04-10T05:39:41;96686.44;;;1.23;82.37
31775;BME280;66189;49.000;11.640;2023-04-10T05:42:00;96682.97;;;1.23;82.48
31775;BME280;66189;49.000;11.640;2023-04-10T05:44:21;96676.31;;;1.31;82.90
31775;BME280;66189;49.000;11.640;2023-04-10T05:46:53;96679.94;;;1.40;82.54
31775;BME280;66189;49.000;11.640;2023-04-10T05:48:59;96684.63;;;1.48;82.27
31775;BME280;66189;49.000;11.640;2023-04-10T05:51:18;96684.28;;;1.55;83.06
31775;BME280;66189;49.000;11.640;2023-04-10T05:53:37;96685.34;;;1.54;83.37
31775;BME280;66189;49.000;11.640;2023-04-10T05:55:38;96681.63;;;1.55;83.84
31775;BME280;66189;49.000;11.640;2023-04-10T05:57:57;96681.53;;;1.65;84.66
31775;BME280;66189;49.000;11.640;2023-04-10T06:00:18;96677.47;;;1.73;84.13
31775;BME280;66189;49.000;11.640;2023-04-10T06:02:41;96683.13;;;1.90;84.52
31775;BME280;66189;49.000;11.640;2023-04-10T06:04:48;96679.22;;;2.07;86.28
31775;BME280;66189;49.000;11.640;2023-04-10T06:06:49;96690.94;;;2.25;86.05
31775;BME280;66189;49.000;11.640;2023-04-10T06:08:51;96691.22;;;2.42;86.92
31775;BME280;66189;49.000;11.640;2023-04-10T06:10:51;96688.78;;;2.46;86.90
31775;BME280;66189;49.000;11.640;2023-04-10T06:12:52;96689.75;;;2.55;85.77
31775;BME280;66189;49.000;11.640;2023-04-10T06:14:55;96688.06;;;2.59;85.80
31775;BME280;66189;49.000;11.640;2023-04-10T06:16:56;96685.78;;;2.72;86.20
31775;BME280;66189;49.000;11.640;2023-04-10T06:18:57;96687.38;;;2.92;87.15
31775;BME280;66189;49.000;11.640;2023-04-10T06:20:57;96680.59;;;2.99;87.13
31775;BME280;66189;49.000;11.640;2023-04-10T06:23:01;96674.59;;;3.41;86.53
31775;BME280;66189;49.000;11.640;2023-04-10T06:25:02;96668.31;;;3.50;85.95
31775;BME280;66189;49.000;11.640;2023-04-10T06:27:03;96671.97;;;3.68;84.26
31775;BME280;66189;49.000;11.640;2023-04-10T06:29:03;96670.31;;;3.86;84.17
31775;BME280;66189;49.000;11.640;2023-04-10T06:31:07;96670.69;;;4.07;84.49
31775;BME280;66189;49.000;11.640;2023-04-10T06:33:10;96670.84;;;4.25;84.22
31775;BME280;66189;49.000;11.640;2023-04-10T06:35:14;96673.63;;;4.34;83.18
31775;BME280;66189;49.000;11.640;2023-04-10T06:37:15;96671.81;;;4.43;82.13
31775;BME280;66189;49.000;11.640;2023-04-10T06:39:15;96681.75;;;4.65;81.12
31775;BME280;66189;49.000;11.640;2023-04-10T06:41:16;96671.94;;;4.74;81.11
31775;BME280;66189;49.000;11.640;2023-04-10T06:43:16;96661.75;;;4.76;79.76
31775;BME280;66189;49.000;11.640;2023-04-10T06:45:17;96668.44;;;4.88;76.86
31775;BME280;66189;49.000;11.640;2023-04-10T06:47:17;96666.50;;;5.02;77.89
31775;BME280;66189;49.000;11.640;2023-04-10T06:49:18;96664.66;;;5.11;78.54
31775;BME280;66189;49.000;11.640;2023-04-10T06:51:18;96667.22;;;5.16;78.19
31775;BME280;66189;49.000;11.640;2023-04-10T06:53:18;96668.44;;;5.33;78.48
31775;BME280;66189;49.000;11.640;2023-04-10T06:55:19;96668.13;;;5.34;77.01
31775;BME280;66189;49.000;11.640;2023-04-10T06:57:20;96670.81;;;5.43;76.57
31775;BME280;66189;49.000;11.640;2023-04-10T06:59:20;96668.25;;;5.61;78.22
31775;BME280;66189;49.000;11.640;2023-04-10T07:01:21;96663.28;;;5.68;76.52
31775;BME280;66189;49.000;11.640;2023-04-10T07:03:21;96661.44;;;5.86;76.73
31775;BME280;66189;49.000;11.640;2023-04-10T07:05:21;96661.38;;;6.00;74.48
31775;BME280;66189;49.000;11.640;2023-04-10T07:07:23;96660.59;;;6.08;75.17
31775;BME280;66189;49.000;11.640;2023-04-10T07:09:24;96662.50;;;6.16;76.25
31775;BME280;66189;49.000;11.640;2023-04-10T07:11:25;96662.69;;;6.29;73.72
31775;BME280;66189;49.000;11.640;2023-04-10T07:13:25;96663.34;;;6.43;74.44
31775;BME280;66189;49.000;11.640;2023-04-10T07:15:26;96662.22;;;6.35;72.17
31775;BME280;66189;49.000;11.640;2023-04-10T07:17:26;96658.47;;;6.45;72.18
31775;BME280;66189;49.000;11.640;2023-04-10T07:19:27;96658.97;;;6.56;71.69
31775;BME280;66189;49.000;11.640;2023-04-10T07:21:27;96660.06;;;6.72;70.69
31775;BME280;66189;49.000;11.640;2023-04-10T07:23:27;96664.63;;;6.81;70.14
31775;BME280;66189;49.000;11.640;2023-04-10T07:25:30;96663.69;;;6.94;70.41
31775;BME280;66189;49.000;11.640;2023-04-10T07:27:31;96662.25;;;6.97;68.24
31775;BME280;66189;49.000;11.640;2023-04-10T07:29:31;96662.25;;;7.05;68.97
31775;BME280;66189;49.000;11.640;2023-04-10T07:31:32;96668.69;;;7.13;67.65
31775;BME280;66189;49.000;11.640;2023-04-10T07:33:32;96667.91;;;7.13;67.59
31775;BME280;66189;49.000;11.640;2023-04-10T07:35:33;96664.75;;;7.28;68.38
31775;BME280;66189;49.000;11.640;2023-04-10T07:37:33;96670.72;;;7.34;66.85
31775;BME280;66189;49.000;11.640;2023-04-10T07:39:34;96673.34;;;7.51;67.14
31775;BME280;66189;49.000;11.640;2023-04-10T07:41:34;96671.91;;;7.62;66.14
31775;BME280;66189;49.000;11.640;2023-04-10T07:43:35;96675.69;;;7.61;66.93
31775;BME280;66189;49.000;11.640;2023-04-10T07:45:35;96684.66;;;7.65;67.20
31775;BME280;66189;49.000;11.640;2023-04-10T07:47:36;96682.78;;;7.57;66.55
31775;BME280;66189;49.000;11.640;2023-04-10T07:49:36;96679.13;;;7.71;63.64
31775;BME280;66189;49.000;11.640;2023-04-10T07:51:36;96681.66;;;7.67;66.46
31775;BME280;66189;49.000;11.640;2023-04-10T07:53:37;96675.50;;;7.67;65.62
31775;BME280;66189;49.000;11.640;2023-04-10T07:55:40;96683.50;;;7.75;62.94
31775;BME280;66189;49.000;11.640;2023-04-10T07:57:41;96680.56;;;7.59;63.77
31775;BME280;66189;49.000;11.640;2023-04-10T07:59:41;96669.38;;;7.66;65.56
31775;BME280;66189;49.000;11.640;2023-04-10T08:01:41;96665.81;;;7.83;64.52
31775;BME280;66189;49.000;11.640;2023-04-10T08:03:43;96672.44;;;7.86;66.56
31775;BME280;66189;49.000;11.640;2023-04-10T08:05:44;96662.16;;;7.96;63.53
31775;BME280;66189;49.000;11.640;2023-04-10T08:07:47;96667.19;;;7.98;62.99
31775;BME280;66189;49.000;11.640;2023-04-10T08:09:47;96658.88;;;7.91;62.77
31775;BME280;66189;49.000;11.640;2023-04-10T08:11:48;96658.38;;;7.97;62.64
31775;BME280;66189;49.000;11.640;2023-04-10T08:13:48;96653.19;;;7.92;61.87
31775;BME280;66189;49.000;11.640;2023-04-10T08:15:50;96652.66;;;8.08;63.85
31775;BME280;66189;49.000;11.640;2023-04-10T08:17:51;96654.53;;;8.37;65.43
31775;BME280;66189;49.000;11.640;2023-04-10T08:19:52;96653.84;;;8.49;60.95
31775;BME280;66189;49.000;11.640;2023-04-10T08:21:53;96655.88;;;8.52;60.75
31775;BME280;66189;49.000;11.640;2023-04-10T08:23:58;96655.59;;;8.45;60.51
31775;BME280;66189;49.000;11.640;2023-04-10T08:25:58;96652.00;;;8.62;61.78
31775;BME280;66189;49.000;11.640;2023-04-10T08:27:59;96659.06;;;8.66;61.06
31775;BME280;66189;49.000;11.640;2023-04-10T08:30:00;96656.88;;;8.68;60.73
31775;BME280;66189;49.000;11.640;2023-04-10T08:32:00;96658.38;;;8.78;61.21
31775;BME280;66189;49.000;11.640;2023-04-10T08:34:00;96665.38;;;8.92;59.32
31775;BME280;66189;49.000;11.640;2023-04-10T08:36:01;96654.63;;;8.92;60.76
31775;BME280;66189;49.000;11.640;2023-04-10T08:38:01;96659.78;;;8.97;59.95
31775;BME280;66189;49.000;11.640;2023-04-10T08:40:01;96653.81;;;8.91;57.37
31775;BME280;66189;49.000;11.640;2023-04-10T08:42:05;96656.78;;;8.98;58.92
31775;BME280;66189;49.000;11.640;2023-04-10T08:44:06;96657.47;;;9.07;60.29
31775;BME280;66189;49.000;11.640;2023-04-10T08:46:06;96655.53;;;9.29;59.37
31775;BME280;66189;49.000;11.640;2023-04-10T08:48:07;96652.84;;;9.29;58.49
31775;BME280;66189;49.000;11.640;2023-04-10T08:50:10;96648.25;;;9.63;59.90
31775;BME280;66189;49.000;11.640;2023-04-10T08:52:14;96645.13;;;9.73;58.97
31775;BME280;66189;49.000;11.640;2023-04-10T08:54:18;96645.91;;;9.99;59.95
31775;BME280;66189;49.000;11.640;2023-04-10T08:56:20;96643.34;;;10.02;58.31
31775;BME280;66189;49.000;11.640;2023-04-10T08:58:23;96641.31;;;10.11;59.10
31775;BME280;66189;49.000;11.640;2023-04-10T09:00:24;96651.03;;;9.79;55.36
31775;BME280;66189;49.000;11.640;2023-04-10T09:02:25;96639.06;;;9.64;55.63
31775;BME280;66189;49.000;11.640;2023-04-10T09:04:25;96639.94;;;9.68;54.95
31775;BME280;66189;49.000;11.640;2023-04-10T09:06:26;96639.63;;;9.82;56.60
31775;BME280;66189;49.000;11.640;2023-04-10T09:08:26;96647.81;;;9.61;54.03
31775;BME280;66189;49.000;11.640;2023-04-10T09:10:28;96633.81;;;9.68;54.06
31775;BME280;66189;49.000;11.640;2023-04-10T09:12:42;96648.88;;;9.48;55.97
31775;BME280;66189;49.000;11.640;2023-04-10T09:14:42;96633.22;;;9.50;54.44
31775;BME280;66189;49.000;11.640;2023-04-10T09:16:43;96633.63;;;9.39;55.28
31775;BME280;66189;49.000;11.640;2023-04-10T09:18:44;96632.78;;;9.60;55.11
31775;BME280;66189;49.000;11.640;2023-04-10T09:20:45;96638.94;;;9.85;53.82
31775;BME280;66189;49.000;11.640;2023-04-10T09:22:50;96630.78;;;10.19;55.92
31775;BME280;66189;49.000;11.640;2023-04-10T09:24:51;96628.31;;;10.26;54.00
31775;BME280;66189;49.000;11.640;2023-04-10T09:26:51;96621.38;;;10.12;52.62
31775;BME280;66189;49.000;11.640;2023-04-10T09:28:59;96632.03;;;9.84;53.27
31775;BME280;66189;49.000;11.640;2023-04-10T09:31:00;96633.81;;;10.05;52.98
31775;BME280;66189;49.000;11.640;2023-04-10T09:33:00;96631.66;;;10.23;55.04
31775;BME280;66189;49.000;11.640;2023-04-10T09:35:01;96628.53;;;10.45;60.06
31775;BME280;66189;49.000;11.640;2023-04-10T09:37:01;96625.06;;;10.08;54.54
31775;BME280;66189;49.000;11.640;2023-04-10T09:39:02;96628.31;;;10.13;53.20
31775;BME280;66189;49.000;11.640;2023-04-10T09:41:06;96622.03;;;10.22;55.28
31775;BME280;66189;49.000;11.640;2023-04-10T09:43:18;96618.19;;;10.47;57.00
31775;BME280;66189;49.000;11.640;2023-04-10T09:45:19;96622.25;;;10.54;54.05
31775;BME280;66189;49.000;11.640;2023-04-10T09:47:21;96616.06;;;10.53;55.59
31775;BME280;66189;49.000;11.640;2023-04-10T09:49:22;96614.28;;;10.57;51.55
31775;BME280;66189;49.000;11.640;2023-04-10T09:51:30;96614.84;;;10.51;54.13
31775;BME280;66189;49.000;11.640;2023-04-10T09:53:47;96616.69;;;10.34;52.38
31775;BME280;66189;49.000;11.640;2023-04-10T09:55:48;96618.63;;;10.62;53.44
31775;BME280;66189;49.000;11.640;2023-04-10T09:57:49;96607.13;;;10.77;55.42
31775;BME280;66189;49.000;11.640;2023-04-10T09:59:52;96613.13;;;10.71;55.23
31775;BME280;66189;49.000;11.640;2023-04-10T10:01:53;96608.66;;;10.91;53.68
31775;BME280;66189;49.000;11.640;2023-04-10T10:03:54;96599.69;;;11.15;53.53
31775;BME280;66189;49.000;11.640;2023-04-10T10:05:55;96602.03;;;11.32;53.15
31775;BME280;66189;49.000;11.640;2023-04-10T10:07:56;96606.81;;;11.23;48.99
31775;BME280;66189;49.000;11.640;2023-04-10T10:09:57;96601.34;;;11.19;51.89
31775;BME280;66189;49.000;11.640;2023-04-10T10:11:58;96597.69;;;11.12;49.07
31775;BME280;66189;49.000;11.640;2023-04-10T10:14:08;96585.91;;;10.47;50.28
31775;BME280;66189;49.000;11.640;2023-04-10T10:16:49;96593.09;;;10.84;51.32
31775;BME280;66189;49.000;11.640;2023-04-10T10:20:49;96591.59;;;11.15;50.67
31775;BME280;66189;49.000;11.640;2023-04-10T10:22:50;96579.72;;;11.16;50.00
31775;BME280;66189;49.000;11.640;2023-04-10T10:24:52;96563.84;;;11.59;50.98
31775;BME280;66189;49.000;11.640;2023-04-10T10:26:57;96567.81;;;11.49;52.39
31775;BME280;66189;49.000;11.640;2023-04-10T10:29:02;96571.38;;;11.53;50.67
31775;BME280;66189;49.000;11.640;2023-04-10T10:31:03;96568.16;;;11.79;49.93
31775;BME280;66189;49.000;11.640;2023-04-10T10:33:06;96563.75;;;11.71;47.85
31775;BME280;66189;49.000;11.640;2023-04-10T10:35:07;96555.81;;;11.78;49.11
31775;BME280;66189;49.000;11.640;2023-04-10T10:37:09;96556.50;;;11.75;50.98
31775;BME280;66189;49.000;11.640;2023-04-10T10:41:27;96539.50;;;12.42;50.39
31775;BME280;66189;49.000;11.640;2023-04-10T10:45:47;96534.09;;;12.42;49.91
31775;BME280;66189;49.000;11.640;2023-04-10T10:47:51;96536.50;;;12.47;48.32
31775;BME280;66189;49.000;11.640;2023-04-10T10:50:00;96535.91;;;12.18;48.06
31775;BME280;66189;49.000;11.640;2023-04-10T10:52:00;96526.06;;;12.46;48.28
31775;BME280;66189;49.000;11.640;2023-04-10T10:54:01;96530.03;;;12.32;48.10
31775;BME280;66189;49.000;11.640;2023-04-10T10:58:45;96528.81;;;12.49;44.27
31775;BME280;66189;49.000;11.640;2023-04-10T11:05:07;96528.19;;;12.56;44.54
31775;BME280;66189;49.000;11.640;2023-04-10T11:07:08;96512.44;;;12.58;45.88
31775;BME280;66189;49.000;11.640;2023-04-10T11:11:57;96506.06;;;12.47;43.49
31775;BME280;66189;49.000;11.640;2023-04-10T11:16:05;96510.06;;;12.76;44.17
31775;BME280;66189;49.000;11.640;2023-04-10T11:18:06;96495.50;;;12.80;44.35
31775;BME280;66189;49.000;11.640;2023-04-10T11:20:06;96493.59;;;12.03;45.39
31775;BME280;66189;49.000;11.640;2023-04-10T11:22:07;96498.81;;;12.12;44.87
31775;BME280;66189;49.000;11.640;2023-04-10T11:24:08;96503.88;;;11.97;43.81
31775;BME280;66189;49.000;11.640;2023-04-10T11:26:08;96494.19;;;12.12;43.32